Carlos Rovirosa Pérez International Airport
MMVA : now visible

Airfield :











YOU CAN JOIN US ON...

 
LOGIN :

Register | Disclaimer

   EN    FR    IT 

 









Legend :    VFR   Marginal VFR   IFR   Intensive IFR   Very Intensive IFR
Visi :
Ceiling :
>= 8 km
>= 3000ft
5 to 8 km
1000 to 3000 ft
1500m to 5 km
500 to 1000 ft
800 to 1500m
200 to 500 ft
< 800m
< 200 ft
Symbols :   Thunderstorms  Fog  Heavy snow  Heavy precipitations  Wind > 20 kt






- Airport Elevation : 46 ft
- IATA code : VSA


MMVA - Carlos Rovirosa Pérez International

CURRENT METAR :
  • 041253Z 00000KT 2 1/2SM BR BKN008 OVC060 23/22 A3003 RMK 8/52/ VRB CONDS

EXPIRED METARs :
  • 041140Z 00000KT 2 1/2SM BR BKN010 OVC060 23/22 A3002 RMK SLP/// 5//// 9// 8/52/ VRB CONDS RTS

TAF TAF MMVA
Valid from the 04 at 06:00 until the 05 at 06:00 UTC


040629Z 0406/0506 00000KT 4SM SCT012 BKN015
TEMPO 0412/0416 2SM RA BR OVC010
FM041800 33015KT 6SM -RA BKN015 OVC080
TEMPO 0421/0501 3SM RA OVC010CB
MMFR FIR / North America



MET'MAP, your aeronautical weather chart ! - Copyright ORBIFLY December 2007 - Disclaimer

ORBIFLY MET'MAP TEAM :

Programming & Development : Alexandra Zaïnal
Concept & original design : Baudouin d'Aumeries
Assistance for programming : Marc-Olivier Méhu
Technical & hardware support : Manuel Goepfert

Contact : metmap@orbifly.com




SOURCES & CREDITS :

   NOAA       Earth
Advisory